Aérodrome :
LOGIN :

S'inscrire | Disclaimer

   EN    FR    IT 

 










Légende :    VFR   VFR Marginal   IFR   IFR Intensif   IFR Très Intensif
Visi : 
Plafond : 
>= 8 km
>= 3000ft
5 à 8 km
1000 à 3000 ft
1500m à 5 km
500 à 1000 ft
800 à 1500m
200 à 500 ft
< 800m
< 200 ft
Symboles :   Orages  Brouillard  Fortes neiges  Fortes précipitations  Vent > 20 kt
SIGMETs :   Divers  Orages  Givrage  Turbulence  Onde Orograph.  Cendres Volcan.







- Altitude de l'aérodrome : 1416 ft
- Code IATA : ZRH


LSZH - Zurich

DERNIER METAR :
  • 170920Z VRB02KT 8000 NSC 03/M00 Q1027 NOSIG

METARs EXPIRÉS :
  • 170850Z VRB02KT 6000 NSC 01/M01 Q1027 NOSIG
  • 170820Z VRB01KT 6000 NSC M00/M01 Q1028 NOSIG
  • 170750Z 32001KT 5000 BR NSC M02/M02 Q1028 NOSIG
  • 170720Z 35002KT 5000 BR NSC M03/M04 Q1028 NOSIG
  • 170650Z VRB01KT 6000 MIFG NSC M03/M04 Q1028 NOSIG

TAF TAF LSZH
Valide du 17 à 09h jusqu'au 18 à 15h UTC


170825Z 1709/1815 VRB03KT 6000 NSC TX15/1715Z TNM04/1805Z TX13/1815Z
BECMG 1709/1711 CAVOK
BECMG 1802/1805 7000 NSC
PROB40 1805/1808 4000 MIFG
BECMG 1808/1810 CAVOK
ATIS : +41 43 816 2295 (DEP) +41 43 816 2294 (ARR)
Pas de NOTAMs connus pour ce terrain.



MET'MAP, la Météo Aéronautique d'un coup d'oeil ! - Copyright ORBIFLY Décembre 2007 - Disclaimer

ORBIFLY MET'MAP TEAM :

Programmation & Développement : Alexandra Zaïnal
Conception & Développement : Baudouin d'Aumeries
Co-Programmation & Développement : Marc-Olivier Méhu
Soutien technique & logistique : Manuel Goepfert

Contact : metmap@orbifly.com




SOURCES & CREDITS :

   NOAA